createdAt,value
2023-02-09T00:01:31.998Z,-6.37
2023-02-09T00:06:34.425Z,-6.46
2023-02-09T00:11:54.432Z,-6.49
2023-02-09T00:16:56.830Z,-6.54
2023-02-09T00:21:59.234Z,-6.76
2023-02-09T00:27:01.707Z,-6.90
2023-02-09T00:32:04.092Z,-6.97
2023-02-09T00:37:06.572Z,-6.77
2023-02-09T00:42:11.190Z,-6.75
2023-02-09T00:47:13.703Z,-6.76
2023-02-09T00:52:16.227Z,-6.77
2023-02-09T00:57:18.591Z,-6.76
2023-02-09T01:02:20.999Z,-6.72
2023-02-09T01:07:23.385Z,-6.73
2023-02-09T01:12:25.788Z,-6.75
2023-02-09T01:17:28.167Z,-6.61
2023-02-09T01:22:30.563Z,-6.74
2023-02-09T01:27:32.873Z,-6.93
2023-02-09T01:32:35.369Z,-6.87
2023-02-09T01:37:37.785Z,-6.97
2023-02-09T01:42:40.265Z,-6.90
2023-02-09T01:47:42.771Z,-6.78
2023-02-09T01:52:45.165Z,-6.88
2023-02-09T01:57:47.458Z,-6.94
2023-02-09T02:02:49.793Z,-7.00
2023-02-09T02:07:52.373Z,-7.10
2023-02-09T02:12:54.719Z,-7.16
2023-02-09T02:17:57.084Z,-6.98
2023-02-09T02:22:59.434Z,-7.07
2023-02-09T02:28:01.824Z,-7.11
2023-02-09T02:33:04.229Z,-7.18
2023-02-09T02:38:06.668Z,-7.16
2023-02-09T02:43:09.259Z,-7.19
2023-02-09T02:48:11.672Z,-7.17
2023-02-09T02:53:14.334Z,-7.19
2023-02-09T02:58:17.016Z,-7.22
2023-02-09T03:03:19.739Z,-7.26
2023-02-09T03:08:22.223Z,-7.20
2023-02-09T03:13:25.062Z,-7.35
2023-02-09T03:18:28.058Z,-7.31
2023-02-09T03:23:30.624Z,-7.36
2023-02-09T03:28:33.370Z,-7.32
2023-02-09T03:33:35.751Z,-7.40
2023-02-09T03:38:38.172Z,-7.41
2023-02-09T03:43:58.404Z,-7.42
2023-02-09T03:49:00.865Z,-7.40
2023-02-09T03:54:03.947Z,-7.41
2023-02-09T03:59:06.308Z,-7.35
2023-02-09T04:04:08.759Z,-7.30
2023-02-09T04:09:11.184Z,-7.19
2023-02-09T04:14:13.499Z,-7.17
2023-02-09T04:19:15.944Z,-7.15
2023-02-09T04:24:19.186Z,-7.21
2023-02-09T04:29:21.599Z,-7.22
2023-02-09T04:34:24.813Z,-7.21
2023-02-09T04:39:27.322Z,-7.25
2023-02-09T04:44:29.938Z,-7.34
2023-02-09T04:49:32.369Z,-7.37
2023-02-09T04:54:35.060Z,-7.37
2023-02-09T04:59:39.168Z,-7.37
2023-02-09T05:04:41.693Z,-7.48
2023-02-09T05:09:44.099Z,-7.55
2023-02-09T05:14:46.471Z,-7.47
2023-02-09T05:19:48.895Z,-7.48
2023-02-09T05:24:51.215Z,-7.33
2023-02-09T05:29:53.516Z,-7.28
2023-02-09T05:34:55.805Z,-7.39
2023-02-09T05:39:58.384Z,-7.38
2023-02-09T05:45:00.755Z,-7.41
2023-02-09T05:50:03.137Z,-7.33
2023-02-09T05:55:05.665Z,-7.28
2023-02-09T06:00:08.159Z,-7.39
2023-02-09T06:05:10.583Z,-7.47
2023-02-09T06:10:13.052Z,-7.53
2023-02-09T06:15:16.577Z,-7.48
2023-02-09T06:20:18.937Z,-7.41
2023-02-09T06:25:21.494Z,-7.35
2023-02-09T06:30:24.026Z,-7.34
2023-02-09T06:35:26.367Z,-7.29
2023-02-09T06:40:28.664Z,-7.25
2023-02-09T06:45:31.103Z,-7.23
2023-02-09T06:50:33.468Z,-7.21
2023-02-09T06:55:35.858Z,-7.16
2023-02-09T07:00:38.193Z,-7.12
2023-02-09T07:05:40.512Z,-7.00
2023-02-09T07:10:43.256Z,-6.88
2023-02-09T07:15:45.713Z,-6.78
2023-02-09T07:20:48.248Z,-6.70
2023-02-09T07:25:50.771Z,-6.54
2023-02-09T07:30:53.155Z,-6.39
2023-02-09T07:35:55.680Z,-6.28
2023-02-09T07:40:58.127Z,-6.18
2023-02-09T07:46:00.899Z,-5.99
2023-02-09T07:51:03.302Z,-5.70
2023-02-09T07:56:05.802Z,-5.51
2023-02-09T08:01:08.268Z,-5.37
2023-02-09T08:06:10.620Z,-5.22
2023-02-09T08:11:13.186Z,-5.04
2023-02-09T08:16:15.767Z,-4.86
2023-02-09T08:21:18.224Z,-4.72
2023-02-09T08:26:20.792Z,-4.57
2023-02-09T08:31:23.169Z,-4.42
2023-02-09T08:36:25.623Z,-4.25
2023-02-09T08:41:28.116Z,-4.09
2023-02-09T08:46:30.577Z,-3.92
2023-02-09T08:51:33.112Z,-3.66
2023-02-09T08:56:35.481Z,-3.37
2023-02-09T09:01:39.896Z,-3.11
2023-02-09T09:06:42.566Z,-2.96
2023-02-09T09:11:45.182Z,-2.80
2023-02-09T09:16:47.592Z,-2.65
2023-02-09T09:21:49.958Z,-2.47
2023-02-09T09:26:52.250Z,-2.26
2023-02-09T09:31:54.609Z,-2.15
2023-02-09T09:36:57.016Z,-2.03
2023-02-09T09:42:00.743Z,-1.83
2023-02-09T09:47:03.149Z,-1.65
2023-02-09T09:52:06.564Z,-1.52
2023-02-09T09:57:09.144Z,-1.41
2023-02-09T10:02:13.989Z,-1.17
2023-02-09T10:07:17.970Z,-0.96
2023-02-09T10:12:21.693Z,-0.92
2023-02-09T10:17:23.991Z,-0.82
2023-02-09T10:22:26.302Z,-0.69
2023-02-09T10:27:28.701Z,-0.53
2023-02-09T10:32:31.260Z,-0.38
2023-02-09T10:37:33.548Z,-0.21
2023-02-09T10:42:35.874Z,-0.13
2023-02-09T10:47:38.154Z,-0.12
2023-02-09T10:52:40.503Z,0.02
2023-02-09T10:57:42.941Z,0.25
2023-02-09T11:02:45.420Z,0.43
2023-02-09T11:07:47.836Z,0.45
2023-02-09T11:12:52.087Z,0.59
2023-02-09T11:17:54.870Z,0.70
2023-02-09T11:22:57.227Z,0.90
2023-02-09T11:27:59.694Z,1.03
2023-02-09T11:33:02.462Z,1.18
2023-02-09T11:38:04.903Z,1.42
2023-02-09T11:43:07.336Z,1.46
2023-02-09T11:48:09.697Z,1.47
2023-02-09T11:53:12.177Z,1.55
2023-02-09T11:58:14.658Z,1.72
2023-02-09T12:03:17.080Z,1.67
2023-02-09T12:08:19.500Z,1.59
2023-02-09T12:13:21.898Z,1.67
2023-02-09T12:18:24.495Z,1.95
2023-02-09T12:23:26.850Z,1.91
2023-02-09T12:28:29.211Z,1.94
2023-02-09T12:33:32.768Z,2.03
2023-02-09T12:38:35.469Z,2.06
2023-02-09T12:43:37.798Z,2.36
2023-02-09T12:48:40.142Z,2.30
2023-02-09T12:53:43.583Z,2.30
2023-02-09T12:58:46.061Z,2.65
2023-02-09T13:03:48.607Z,2.65
2023-02-09T13:08:53.072Z,2.87
2023-02-09T13:13:55.680Z,2.69
2023-02-09T13:18:58.165Z,2.74
2023-02-09T13:24:00.642Z,2.69
2023-02-09T13:29:18.216Z,2.54
2023-02-09T13:34:22.634Z,2.61
2023-02-09T13:39:25.366Z,2.74
2023-02-09T13:44:27.947Z,2.63
2023-02-09T13:49:30.362Z,2.65
2023-02-09T13:54:32.720Z,2.64
2023-02-09T13:59:35.241Z,2.65
2023-02-09T14:04:37.619Z,2.72
2023-02-09T14:09:40.028Z,2.67
2023-02-09T14:14:56.291Z,2.51
2023-02-09T14:19:58.957Z,2.56
2023-02-09T14:25:01.517Z,2.47
2023-02-09T14:30:04.067Z,2.60
2023-02-09T14:35:06.469Z,2.50
2023-02-09T14:40:09.128Z,2.56
2023-02-09T14:45:11.438Z,2.50
2023-02-09T14:50:16.002Z,2.39
2023-02-09T14:55:18.490Z,2.23
2023-02-09T15:00:20.843Z,2.17
2023-02-09T15:05:23.448Z,2.21
2023-02-09T15:10:25.856Z,2.11
2023-02-09T15:15:28.525Z,1.89
2023-02-09T15:20:31.448Z,1.83
2023-02-09T15:25:33.843Z,1.84
2023-02-09T15:30:36.271Z,1.85
2023-02-09T15:35:38.698Z,1.76
2023-02-09T15:40:59.001Z,1.57
2023-02-09T15:46:18.979Z,1.50
2023-02-09T15:51:21.484Z,1.25
2023-02-09T15:56:24.123Z,1.22
2023-02-09T16:01:26.659Z,1.10
2023-02-09T16:06:29.284Z,1.00
2023-02-09T16:11:33.072Z,0.94
2023-02-09T16:16:35.391Z,0.75
2023-02-09T16:21:37.663Z,0.68
2023-02-09T16:26:40.087Z,0.47
2023-02-09T16:31:42.510Z,0.37
2023-02-09T16:36:46.057Z,0.14
2023-02-09T16:41:51.053Z,-0.07
2023-02-09T16:46:53.515Z,-0.26
2023-02-09T16:51:56.008Z,-0.25
2023-02-09T16:56:58.306Z,-0.39
2023-02-09T17:02:02.120Z,-0.57
2023-02-09T17:07:04.618Z,-0.71
2023-02-09T17:12:07.306Z,-0.80
2023-02-09T17:17:09.685Z,-0.88
2023-02-09T17:22:12.067Z,-0.97
2023-02-09T17:27:14.558Z,-1.03
2023-02-09T17:32:17.583Z,-1.14
2023-02-09T17:37:19.912Z,-1.21
2023-02-09T17:42:22.539Z,-1.16
2023-02-09T17:47:25.003Z,-1.23
2023-02-09T17:52:27.375Z,-1.31
2023-02-09T17:57:29.774Z,-1.37
2023-02-09T18:02:32.385Z,-1.40
2023-02-09T18:07:34.868Z,-1.32
2023-02-09T18:12:37.295Z,-1.30
2023-02-09T18:17:42.293Z,-1.31
2023-02-09T18:22:45.189Z,-1.46
2023-02-09T18:27:47.464Z,-1.68
2023-02-09T18:32:50.076Z,-1.86
2023-02-09T18:37:52.398Z,-1.99
2023-02-09T18:42:54.783Z,-2.11
2023-02-09T18:47:57.226Z,-2.01
2023-02-09T18:52:59.943Z,-1.96
2023-02-09T18:58:02.381Z,-2.13
2023-02-09T19:03:04.910Z,-2.10
2023-02-09T19:08:08.185Z,-1.95
2023-02-09T19:13:10.745Z,-2.21
2023-02-09T19:18:13.064Z,-2.31
2023-02-09T19:23:15.346Z,-2.45
2023-02-09T19:28:17.961Z,-2.55
2023-02-09T19:33:23.137Z,-2.63
2023-02-09T19:38:25.982Z,-2.65
2023-02-09T19:43:28.385Z,-2.73
2023-02-09T19:48:30.772Z,-2.80
2023-02-09T19:53:33.049Z,-2.90
2023-02-09T19:58:35.458Z,-2.96
2023-02-09T20:03:38.019Z,-3.04
2023-02-09T20:08:40.724Z,-3.06
2023-02-09T20:13:43.268Z,-3.05
2023-02-09T20:18:47.939Z,-3.08
2023-02-09T20:23:50.258Z,-3.09
2023-02-09T20:28:52.686Z,-3.13
2023-02-09T20:33:55.152Z,-3.15
2023-02-09T20:38:57.624Z,-3.26
2023-02-09T20:44:17.420Z,-3.34
2023-02-09T20:49:19.827Z,-3.32
2023-02-09T20:54:22.256Z,-3.31
2023-02-09T20:59:24.676Z,-3.32
2023-02-09T21:04:30.107Z,-3.27
2023-02-09T21:09:34.356Z,-3.32
2023-02-09T21:14:43.912Z,-3.33
2023-02-09T21:19:46.557Z,-3.37
2023-02-09T21:24:48.900Z,-3.38
2023-02-09T21:29:51.222Z,-3.45
2023-02-09T21:34:53.567Z,-3.49
2023-02-09T21:39:55.926Z,-3.54
2023-02-09T21:44:58.292Z,-3.66
2023-02-09T21:50:00.685Z,-3.66
2023-02-09T21:55:03.078Z,-3.73
2023-02-09T22:00:07.671Z,-3.79
2023-02-09T22:05:10.063Z,-3.75
2023-02-09T22:10:12.381Z,-3.79
2023-02-09T22:15:15.180Z,-3.99
2023-02-09T22:20:17.665Z,-4.08
2023-02-09T22:25:22.597Z,-4.13
2023-02-09T22:30:24.992Z,-4.17
2023-02-09T22:35:27.419Z,-4.18
2023-02-09T22:40:29.839Z,-4.26
2023-02-09T22:45:32.288Z,-4.29
2023-02-09T22:50:34.631Z,-4.37
2023-02-09T22:55:37.041Z,-4.31
2023-02-09T23:00:39.347Z,-4.33
2023-02-09T23:05:41.688Z,-4.35
2023-02-09T23:10:43.963Z,-4.36
2023-02-09T23:15:46.725Z,-4.48
2023-02-09T23:20:49.555Z,-4.40
2023-02-09T23:25:51.862Z,-4.23
2023-02-09T23:30:54.322Z,-4.22
2023-02-09T23:35:56.712Z,-4.14
2023-02-09T23:40:58.982Z,-4.17
2023-02-09T23:46:01.368Z,-4.12
2023-02-09T23:51:03.896Z,-4.09
2023-02-09T23:56:06.330Z,-4.04
